createdAt,value
2019-05-03T00:00:27.043Z,0.00
2019-05-03T00:01:27.029Z,0.00
2019-05-03T00:02:27.025Z,0.00
2019-05-03T00:03:27.007Z,0.00
2019-05-03T00:04:27.008Z,0.00
2019-05-03T00:05:26.987Z,0.00
2019-05-03T00:06:26.982Z,0.00
2019-05-03T00:07:26.962Z,0.00
2019-05-03T00:08:26.950Z,0.00
2019-05-03T00:09:26.941Z,0.00
2019-05-03T00:10:26.935Z,0.00
2019-05-03T00:11:26.943Z,0.00
2019-05-03T00:12:26.913Z,0.00
2019-05-03T00:13:26.896Z,0.00
2019-05-03T00:14:26.887Z,0.00
2019-05-03T00:15:26.884Z,0.00
2019-05-03T00:16:26.862Z,0.00
2019-05-03T00:17:26.868Z,0.00
2019-05-03T00:18:26.844Z,0.00
2019-05-03T00:19:26.851Z,0.00
2019-05-03T00:20:26.834Z,0.00
2019-05-03T00:21:26.810Z,0.00
2019-05-03T00:22:26.801Z,0.00
2019-05-03T00:23:26.804Z,0.00
2019-05-03T00:24:26.785Z,0.00
2019-05-03T00:25:26.766Z,0.00
2019-05-03T00:26:26.763Z,0.00
2019-05-03T00:27:26.745Z,0.00
2019-05-03T00:28:26.736Z,0.00
2019-05-03T00:29:26.712Z,0.00
2019-05-03T00:30:26.709Z,0.00
2019-05-03T00:31:26.704Z,0.00
2019-05-03T00:32:26.689Z,0.00
2019-05-03T00:33:26.674Z,0.00
2019-05-03T00:34:26.669Z,0.00
2019-05-03T00:35:26.651Z,0.00
2019-05-03T00:36:26.640Z,0.00
2019-05-03T00:37:26.629Z,0.00
2019-05-03T00:38:26.620Z,0.00
2019-05-03T00:39:26.625Z,0.00
2019-05-03T00:40:26.593Z,0.00
2019-05-03T00:41:26.586Z,0.00
2019-05-03T00:42:26.577Z,0.00
2019-05-03T00:43:26.568Z,0.00
2019-05-03T00:44:26.548Z,0.00
2019-05-03T00:45:26.551Z,0.00
2019-05-03T00:46:26.543Z,0.00
2019-05-03T00:47:26.575Z,0.00
2019-05-03T00:48:26.509Z,0.00
2019-05-03T00:49:26.499Z,0.00
2019-05-03T00:50:26.485Z,0.00
2019-05-03T00:51:26.484Z,0.00
2019-05-03T00:52:26.456Z,0.00
2019-05-03T00:53:26.448Z,0.00
2019-05-03T00:54:26.442Z,0.00
2019-05-03T00:55:26.425Z,0.00
2019-05-03T00:56:26.418Z,0.00
2019-05-03T00:57:26.408Z,0.00
2019-05-03T00:58:26.403Z,0.00
2019-05-03T00:59:26.377Z,0.00
2019-05-03T01:00:26.382Z,0.00
2019-05-03T01:01:26.356Z,0.00
2019-05-03T01:02:26.477Z,0.00
2019-05-03T01:03:26.333Z,0.00
2019-05-03T01:04:26.324Z,0.00
2019-05-03T01:05:26.316Z,0.00
2019-05-03T01:06:26.312Z,0.00
2019-05-03T01:07:26.298Z,0.00
2019-05-03T01:08:26.283Z,0.00
2019-05-03T01:09:26.266Z,0.00
2019-05-03T01:10:26.267Z,0.00
2019-05-03T01:11:26.260Z,0.00
2019-05-03T01:12:26.234Z,0.00
2019-05-03T01:13:26.231Z,0.00
2019-05-03T01:14:26.214Z,0.00
2019-05-03T01:15:26.197Z,0.00
2019-05-03T01:16:26.194Z,0.00
2019-05-03T01:17:26.184Z,0.00
2019-05-03T01:18:26.167Z,0.00
2019-05-03T01:19:26.171Z,0.00
2019-05-03T01:20:26.146Z,0.00
2019-05-03T01:21:26.142Z,0.00
2019-05-03T01:22:26.130Z,0.00
2019-05-03T01:23:26.125Z,0.00
2019-05-03T01:24:26.110Z,0.00
2019-05-03T01:25:32.241Z,0.00
2019-05-03T01:26:27.079Z,0.00
2019-05-03T01:27:26.065Z,0.00
2019-05-03T01:28:26.062Z,0.00
2019-05-03T01:29:26.062Z,0.00
2019-05-03T01:30:26.036Z,0.00
2019-05-03T01:31:26.025Z,0.00
2019-05-03T01:32:26.017Z,0.00
2019-05-03T01:33:26.007Z,0.00
2019-05-03T01:34:25.997Z,0.00
2019-05-03T01:35:25.975Z,0.00
2019-05-03T01:36:25.966Z,0.00
2019-05-03T01:37:25.981Z,0.00
2019-05-03T01:38:25.951Z,0.00
2019-05-03T01:39:25.937Z,0.00
2019-05-03T01:40:25.935Z,0.00
2019-05-03T01:41:25.913Z,0.00
2019-05-03T01:42:25.903Z,0.00
2019-05-03T01:43:25.887Z,0.00
2019-05-03T01:44:25.881Z,0.00
2019-05-03T01:45:25.872Z,0.00
2019-05-03T01:46:25.861Z,0.00
2019-05-03T01:47:25.855Z,0.00
2019-05-03T01:48:25.827Z,0.00
2019-05-03T01:49:25.826Z,0.00
2019-05-03T01:50:25.812Z,0.00
2019-05-03T01:51:25.823Z,0.00
2019-05-03T01:52:25.792Z,0.00
2019-05-03T01:53:25.780Z,0.00
2019-05-03T01:54:25.776Z,0.00
2019-05-03T01:55:25.751Z,0.00
2019-05-03T01:56:25.754Z,0.00
2019-05-03T01:57:25.735Z,0.00
2019-05-03T01:58:25.730Z,0.00
2019-05-03T01:59:25.714Z,0.00
2019-05-03T02:00:25.716Z,0.00
2019-05-03T02:01:25.689Z,0.00
2019-05-03T02:02:25.686Z,0.00
2019-05-03T02:03:25.679Z,0.00
2019-05-03T02:04:25.663Z,0.00
2019-05-03T02:05:25.659Z,0.00
2019-05-03T02:06:25.631Z,0.00
2019-05-03T02:07:25.639Z,0.00
2019-05-03T02:08:25.609Z,0.00
2019-05-03T02:09:25.640Z,0.00
2019-05-03T02:10:25.596Z,0.00
2019-05-03T02:11:25.586Z,0.00
2019-05-03T02:12:25.570Z,0.00
2019-05-03T02:13:25.579Z,0.00
2019-05-03T02:14:25.546Z,0.00
2019-05-03T02:15:25.534Z,0.00
2019-05-03T02:16:25.546Z,0.00
2019-05-03T02:17:25.517Z,0.00
2019-05-03T02:18:25.505Z,0.00
2019-05-03T02:19:25.491Z,0.00
2019-05-03T02:20:25.486Z,0.00
2019-05-03T02:21:25.473Z,0.00
2019-05-03T02:22:25.458Z,0.00
2019-05-03T02:23:25.443Z,0.00
2019-05-03T02:24:25.449Z,0.00
2019-05-03T02:25:25.425Z,0.00
2019-05-03T02:26:25.413Z,0.00
2019-05-03T02:27:25.401Z,0.00
2019-05-03T02:28:25.401Z,0.00
2019-05-03T02:29:25.379Z,0.00
2019-05-03T02:30:25.388Z,0.00
2019-05-03T02:31:25.362Z,0.00
2019-05-03T02:32:25.348Z,0.00
2019-05-03T02:33:25.346Z,0.00
2019-05-03T02:34:25.332Z,0.00
2019-05-03T02:35:25.326Z,0.00
2019-05-03T02:36:25.334Z,0.00
2019-05-03T02:37:25.294Z,0.00
2019-05-03T02:38:25.286Z,0.00
2019-05-03T02:39:25.269Z,0.00
2019-05-03T02:40:25.257Z,0.00
2019-05-03T02:41:25.248Z,0.00
2019-05-03T02:42:26.451Z,0.00
2019-05-03T02:43:26.210Z,0.00
2019-05-03T02:44:26.627Z,0.00
2019-05-03T02:45:25.942Z,0.00
2019-05-03T02:46:25.496Z,0.00
2019-05-03T02:47:26.560Z,0.00
2019-05-03T02:48:25.651Z,0.00
2019-05-03T02:49:25.785Z,0.00
2019-05-03T02:50:26.013Z,0.00
2019-05-03T02:51:25.975Z,0.00
2019-05-03T02:52:25.640Z,0.00
2019-05-03T02:53:25.838Z,0.00
2019-05-03T02:54:26.976Z,0.00
2019-05-03T02:55:26.048Z,0.00
2019-05-03T02:56:26.044Z,0.00
2019-05-03T02:57:25.852Z,0.00
2019-05-03T02:58:25.443Z,0.00
2019-05-03T02:59:26.349Z,0.00
2019-05-03T03:00:25.477Z,0.00
2019-05-03T03:01:26.356Z,0.00
2019-05-03T03:02:26.365Z,0.00
2019-05-03T03:03:25.586Z,0.00
2019-05-03T03:04:25.967Z,0.00
2019-05-03T03:05:25.399Z,0.00
2019-05-03T03:06:26.802Z,0.00
2019-05-03T03:07:25.854Z,0.00
2019-05-03T03:08:25.242Z,0.00
2019-05-03T03:09:26.043Z,0.00
2019-05-03T03:10:26.461Z,0.00
2019-05-03T03:11:26.141Z,0.00
2019-05-03T03:12:25.802Z,0.00
2019-05-03T03:13:25.441Z,0.00
2019-05-03T03:14:25.631Z,0.00
2019-05-03T03:15:25.652Z,0.00
2019-05-03T03:16:25.246Z,0.00
2019-05-03T03:17:25.457Z,0.00
2019-05-03T03:18:25.539Z,0.00
2019-05-03T03:19:26.169Z,0.00
2019-05-03T03:20:25.347Z,0.00
2019-05-03T03:21:26.058Z,0.00
2019-05-03T03:22:25.946Z,0.00
2019-05-03T03:23:26.239Z,0.00
2019-05-03T03:24:25.872Z,0.00
2019-05-03T03:25:25.880Z,0.00
2019-05-03T03:26:34.437Z,0.00
2019-05-03T03:27:25.981Z,0.00
2019-05-03T03:28:25.335Z,0.00
2019-05-03T03:29:25.478Z,0.00
2019-05-03T03:30:29.266Z,0.00
2019-05-03T03:31:28.144Z,0.00
2019-05-03T03:32:29.118Z,0.00
2019-05-03T03:33:28.085Z,0.00
2019-05-03T03:34:28.006Z,0.00
2019-05-03T03:35:29.225Z,0.00
2019-05-03T03:36:43.616Z,0.00
2019-05-03T03:37:26.106Z,0.00
2019-05-03T03:38:26.063Z,0.00
2019-05-03T03:39:26.119Z,0.00
2019-05-03T03:40:25.447Z,0.00
2019-05-03T03:41:25.010Z,0.00
2019-05-03T03:42:25.163Z,0.00
2019-05-03T03:43:25.945Z,0.00
2019-05-03T03:44:25.734Z,0.00
2019-05-03T03:45:25.381Z,0.00
2019-05-03T03:46:25.120Z,0.00
2019-05-03T03:47:27.314Z,0.00
2019-05-03T03:48:26.577Z,0.00
2019-05-03T03:49:26.191Z,0.00
2019-05-03T03:50:25.880Z,0.00
2019-05-03T03:51:26.344Z,0.00
2019-05-03T03:52:25.521Z,0.00
2019-05-03T03:53:26.360Z,0.00
2019-05-03T03:54:26.009Z,0.00
2019-05-03T03:55:26.453Z,0.00
2019-05-03T03:56:25.555Z,0.00
2019-05-03T03:57:25.309Z,0.00
2019-05-03T03:58:27.079Z,0.00
2019-05-03T03:59:26.692Z,0.00
2019-05-03T04:00:25.837Z,0.00
2019-05-03T04:01:26.626Z,0.00
2019-05-03T04:02:26.545Z,0.00
2019-05-03T04:03:26.012Z,0.00
2019-05-03T04:04:26.183Z,0.00
2019-05-03T04:05:25.374Z,0.00
2019-05-03T04:06:26.670Z,0.00
2019-05-03T04:07:26.240Z,0.00
2019-05-03T04:08:25.211Z,0.00
2019-05-03T04:09:25.572Z,0.00
2019-05-03T04:10:26.114Z,0.00
2019-05-03T04:11:25.958Z,5.62
2019-05-03T04:12:26.492Z,5.62
2019-05-03T04:13:25.501Z,5.62
2019-05-03T04:14:25.402Z,5.62
2019-05-03T04:15:26.112Z,5.62
2019-05-03T04:16:25.922Z,5.62
2019-05-03T04:17:26.108Z,5.62
2019-05-03T04:18:25.544Z,5.62
2019-05-03T04:19:25.130Z,5.62
2019-05-03T04:20:25.633Z,5.62
2019-05-03T04:21:25.492Z,5.62
2019-05-03T04:22:25.366Z,5.62
2019-05-03T04:23:26.323Z,5.62
2019-05-03T04:24:25.889Z,5.62
2019-05-03T04:25:26.225Z,5.62
2019-05-03T04:26:29.469Z,5.62
2019-05-03T04:27:27.516Z,5.62
2019-05-03T04:28:25.551Z,5.62
2019-05-03T04:29:25.397Z,5.62
2019-05-03T04:30:25.694Z,5.62
2019-05-03T04:31:26.170Z,5.62
2019-05-03T04:32:28.119Z,5.62
2019-05-03T04:33:26.626Z,5.62
2019-05-03T04:34:26.145Z,5.62
2019-05-03T04:35:26.521Z,5.62
2019-05-03T04:36:26.293Z,5.62
2019-05-03T04:37:26.289Z,5.62
2019-05-03T04:38:25.684Z,5.62
2019-05-03T04:39:25.637Z,11.25
2019-05-03T04:40:25.997Z,11.25
2019-05-03T04:41:26.765Z,11.25
2019-05-03T04:42:25.394Z,11.25
2019-05-03T04:43:26.508Z,11.25
2019-05-03T04:44:26.019Z,11.25
2019-05-03T04:45:25.559Z,11.25
2019-05-03T04:46:25.891Z,11.25
2019-05-03T04:47:26.207Z,11.25
2019-05-03T04:48:25.319Z,11.25
2019-05-03T04:49:26.195Z,11.25
2019-05-03T04:50:25.524Z,11.25
2019-05-03T04:51:25.954Z,11.25
2019-05-03T04:52:25.930Z,11.25
2019-05-03T04:53:25.883Z,11.25
2019-05-03T04:54:25.210Z,11.25
2019-05-03T04:55:26.309Z,11.25
2019-05-03T04:56:25.906Z,11.25
2019-05-03T04:57:36.646Z,11.25
2019-05-03T04:58:25.851Z,11.25
2019-05-03T04:59:25.510Z,11.25
2019-05-03T05:00:25.735Z,11.25
2019-05-03T05:01:25.949Z,11.25
2019-05-03T05:02:26.292Z,11.25
2019-05-03T05:03:23.652Z,11.25
2019-05-03T05:04:25.393Z,11.25
2019-05-03T05:05:26.164Z,11.25
2019-05-03T05:06:25.807Z,16.88
2019-05-03T05:07:26.043Z,16.88
2019-05-03T05:08:25.315Z,16.88
2019-05-03T05:09:25.804Z,16.88
2019-05-03T05:10:26.050Z,16.88
2019-05-03T05:11:26.094Z,11.25
2019-05-03T05:12:25.167Z,11.25
2019-05-03T05:13:25.023Z,11.25
2019-05-03T05:14:25.678Z,5.62
2019-05-03T05:15:26.023Z,5.62
2019-05-03T05:16:25.167Z,5.62
2019-05-03T05:17:26.094Z,5.62
2019-05-03T05:18:26.166Z,11.25
2019-05-03T05:19:25.316Z,11.25
2019-05-03T05:20:24.806Z,11.25
2019-05-03T05:21:25.244Z,11.25
2019-05-03T05:22:24.699Z,11.25
2019-05-03T05:23:25.124Z,11.25
2019-05-03T05:24:25.398Z,11.25
2019-05-03T05:25:25.104Z,11.25
2019-05-03T05:26:24.851Z,11.25
2019-05-03T05:27:25.413Z,16.88
2019-05-03T05:28:25.005Z,16.88
2019-05-03T05:29:25.245Z,16.88
2019-05-03T05:30:25.138Z,16.88
2019-05-03T05:31:25.324Z,16.88
2019-05-03T05:32:24.739Z,16.88
2019-05-03T05:33:25.228Z,16.88
2019-05-03T05:34:24.589Z,16.88
2019-05-03T05:35:24.822Z,16.88
2019-05-03T05:36:24.388Z,16.88
2019-05-03T05:37:24.984Z,16.88
2019-05-03T05:38:25.321Z,16.88
2019-05-03T05:39:24.456Z,16.88
2019-05-03T05:40:24.567Z,22.50
2019-05-03T05:41:24.480Z,22.50
2019-05-03T05:42:24.946Z,16.88
2019-05-03T05:43:25.353Z,16.88
2019-05-03T05:44:24.745Z,16.88
2019-05-03T05:45:24.558Z,16.88
2019-05-03T05:46:24.804Z,16.88
2019-05-03T05:47:25.306Z,16.88
2019-05-03T05:48:24.595Z,16.88
2019-05-03T05:49:23.141Z,16.88
2019-05-03T05:50:25.236Z,16.88
2019-05-03T05:51:24.858Z,22.50
2019-05-03T05:52:24.540Z,22.50
2019-05-03T05:53:23.096Z,22.50
2019-05-03T05:54:24.606Z,22.50
2019-05-03T05:55:25.153Z,22.50
2019-05-03T05:56:24.962Z,22.50
2019-05-03T05:57:23.053Z,22.50
2019-05-03T05:58:25.384Z,22.50
2019-05-03T05:59:24.770Z,22.50
2019-05-03T06:00:23.020Z,22.50
2019-05-03T06:01:24.870Z,28.12
2019-05-03T06:02:23.000Z,28.12
2019-05-03T06:03:22.985Z,28.12
2019-05-03T06:04:24.600Z,28.12
2019-05-03T06:05:25.040Z,33.75
2019-05-03T06:06:24.392Z,22.50
2019-05-03T06:07:24.723Z,16.88
2019-05-03T06:08:24.982Z,28.12
2019-05-03T06:09:22.927Z,28.12
2019-05-03T06:10:24.734Z,28.12
2019-05-03T06:11:22.898Z,16.88
2019-05-03T06:12:22.910Z,22.50
2019-05-03T06:13:22.870Z,28.12
2019-05-03T06:14:24.516Z,28.12
2019-05-03T06:15:25.002Z,16.88
2019-05-03T06:16:24.542Z,33.75
2019-05-03T06:17:24.517Z,45.00
2019-05-03T06:18:24.914Z,39.38
2019-05-03T06:19:22.805Z,39.38
2019-05-03T06:20:24.534Z,39.38
2019-05-03T06:21:24.954Z,45.00
2019-05-03T06:22:22.769Z,33.75
2019-05-03T06:23:24.673Z,28.12
2019-05-03T06:24:24.788Z,39.38
2019-05-03T06:25:26.187Z,22.50
2019-05-03T06:26:22.726Z,22.50
2019-05-03T06:27:24.468Z,45.00
2019-05-03T06:28:25.057Z,45.00
2019-05-03T06:29:24.663Z,45.00
2019-05-03T06:30:24.725Z,45.00
2019-05-03T06:31:22.854Z,33.75
2019-05-03T06:32:22.661Z,39.38
2019-05-03T06:33:24.500Z,50.62
2019-05-03T06:34:22.640Z,39.38
2019-05-03T06:35:24.342Z,22.50
2019-05-03T06:36:24.306Z,22.50
2019-05-03T06:37:22.610Z,45.00
2019-05-03T06:38:24.276Z,33.75
2019-05-03T06:39:24.743Z,33.75
2019-05-03T06:40:22.573Z,45.00
2019-05-03T06:41:22.565Z,39.38
2019-05-03T06:42:22.998Z,33.75
2019-05-03T06:43:24.279Z,28.12
2019-05-03T06:44:24.798Z,45.00
2019-05-03T06:45:25.111Z,50.62
2019-05-03T06:46:23.486Z,61.88
2019-05-03T06:47:25.342Z,50.62
2019-05-03T06:48:26.986Z,50.62
2019-05-03T06:49:25.364Z,61.88
2019-05-03T06:50:27.574Z,50.62
2019-05-03T06:51:24.865Z,39.38
2019-05-03T06:52:25.482Z,33.75
2019-05-03T06:53:25.289Z,22.50
2019-05-03T06:54:26.835Z,56.25
2019-05-03T06:55:24.751Z,50.62
2019-05-03T06:56:25.035Z,61.88
2019-05-03T06:57:25.213Z,129.38
2019-05-03T06:58:31.228Z,56.25
2019-05-03T06:59:24.984Z,33.75
2019-05-03T07:00:22.350Z,67.50
2019-05-03T07:01:22.343Z,146.25
2019-05-03T07:02:22.325Z,50.62
2019-05-03T07:03:22.317Z,56.25
2019-05-03T07:04:24.414Z,67.50
2019-05-03T07:05:22.297Z,39.38
2019-05-03T07:06:33.497Z,33.75
2019-05-03T07:07:26.060Z,33.75
2019-05-03T07:08:22.255Z,67.50
2019-05-03T07:09:22.250Z,56.25
2019-05-03T07:10:22.237Z,73.12
2019-05-03T07:11:22.220Z,118.12
2019-05-03T07:12:22.222Z,73.12
2019-05-03T07:13:22.202Z,50.62
2019-05-03T07:14:22.192Z,39.38
2019-05-03T07:15:22.205Z,39.38
2019-05-03T07:16:22.177Z,33.75
2019-05-03T07:17:22.153Z,28.12
2019-05-03T07:18:22.156Z,45.00
2019-05-03T07:19:22.136Z,50.62
2019-05-03T07:20:22.121Z,73.12
2019-05-03T07:21:22.120Z,39.38
2019-05-03T07:22:22.127Z,33.75
2019-05-03T07:23:22.183Z,33.75
2019-05-03T07:24:22.075Z,67.50
2019-05-03T07:25:22.065Z,73.12
2019-05-03T07:26:22.063Z,78.75
2019-05-03T07:27:22.052Z,73.12
2019-05-03T07:28:22.035Z,78.75
2019-05-03T07:29:22.018Z,50.62
2019-05-03T07:30:22.015Z,50.62
2019-05-03T07:31:22.002Z,50.62
2019-05-03T07:32:21.990Z,101.25
2019-05-03T07:33:21.987Z,33.75
2019-05-03T07:34:21.964Z,39.38
2019-05-03T07:35:21.959Z,45.00
2019-05-03T07:36:25.077Z,45.00
2019-05-03T07:37:24.573Z,61.88
2019-05-03T07:38:21.926Z,28.12
2019-05-03T07:39:21.923Z,61.88
2019-05-03T07:40:21.897Z,67.50
2019-05-03T07:41:24.457Z,67.50
2019-05-03T07:42:22.880Z,73.12
2019-05-03T07:43:21.872Z,61.88
2019-05-03T07:44:21.857Z,45.00
2019-05-03T07:45:21.837Z,45.00
2019-05-03T07:46:21.831Z,61.88
2019-05-03T07:47:21.834Z,67.50
2019-05-03T07:48:21.809Z,50.62
2019-05-03T07:49:21.798Z,50.62
2019-05-03T07:50:21.804Z,45.00
2019-05-03T07:51:21.790Z,39.38
2019-05-03T07:52:21.763Z,45.00
2019-05-03T07:53:21.756Z,39.38
2019-05-03T07:54:21.740Z,33.75
2019-05-03T07:55:21.744Z,56.25
2019-05-03T07:56:21.720Z,67.50
2019-05-03T07:57:28.866Z,67.50
2019-05-03T07:59:06.230Z,45.00
2019-05-03T08:00:04.981Z,67.50
2019-05-03T08:01:07.081Z,50.62
2019-05-03T08:02:05.668Z,67.50
2019-05-03T08:03:05.014Z,67.50
2019-05-03T08:04:05.280Z,61.88
2019-05-03T08:05:05.102Z,78.75
2019-05-03T08:06:04.805Z,84.38
2019-05-03T08:07:04.449Z,90.00
2019-05-03T08:08:04.794Z,101.25
2019-05-03T08:09:04.843Z,95.62
2019-05-03T08:10:05.390Z,84.38
2019-05-03T08:11:05.137Z,33.75
2019-05-03T08:12:05.066Z,28.12
2019-05-03T08:13:04.667Z,33.75
2019-05-03T08:14:04.995Z,45.00
2019-05-03T08:15:05.262Z,90.00
2019-05-03T08:16:03.156Z,45.00
2019-05-03T08:17:05.001Z,33.75
2019-05-03T08:18:04.813Z,84.38
2019-05-03T08:19:04.914Z,101.25
2019-05-03T08:20:05.150Z,95.62
2019-05-03T08:21:05.157Z,73.12
2019-05-03T08:22:04.781Z,67.50
2019-05-03T08:23:05.126Z,50.62
2019-05-03T08:24:04.585Z,45.00
2019-05-03T08:25:03.070Z,45.00
2019-05-03T08:26:05.520Z,202.50
2019-05-03T08:27:05.116Z,146.25
2019-05-03T08:28:05.157Z,185.62
2019-05-03T08:29:15.321Z,78.75
2019-05-03T08:30:04.680Z,371.25
2019-05-03T08:31:04.767Z,45.00
2019-05-03T08:32:04.918Z,28.12
2019-05-03T08:33:02.997Z,22.50
2019-05-03T08:34:04.824Z,28.12
2019-05-03T08:35:04.704Z,22.50
2019-05-03T08:36:04.852Z,28.12
2019-05-03T08:37:05.006Z,84.38
2019-05-03T08:38:04.827Z,180.00
2019-05-03T08:39:05.356Z,466.88
2019-05-03T08:40:02.910Z,590.62
2019-05-03T08:41:02.889Z,360.00
2019-05-03T08:42:04.818Z,123.75
2019-05-03T08:43:05.024Z,219.38
2019-05-03T08:44:02.852Z,697.50
2019-05-03T08:45:04.555Z,669.38
2019-05-03T08:46:04.597Z,630.00
2019-05-03T08:47:02.831Z,56.25
2019-05-03T08:48:02.823Z,61.88
2019-05-03T08:49:05.023Z,45.00
2019-05-03T08:50:02.787Z,61.88
2019-05-03T08:51:04.529Z,67.50
2019-05-03T08:52:02.763Z,50.62
2019-05-03T08:53:04.924Z,135.00
2019-05-03T08:54:04.653Z,129.38
2019-05-03T08:55:02.724Z,140.62
2019-05-03T08:56:02.713Z,78.75
2019-05-03T08:57:02.711Z,61.88
2019-05-03T08:58:02.702Z,45.00
2019-05-03T08:59:04.544Z,112.50
2019-05-03T09:00:02.670Z,50.62
2019-05-03T09:01:02.652Z,315.00
2019-05-03T09:02:03.524Z,213.75
2019-05-03T09:03:05.232Z,95.62
2019-05-03T09:04:02.636Z,61.88
2019-05-03T09:05:02.616Z,56.25
2019-05-03T09:06:04.512Z,45.00
2019-05-03T09:07:02.590Z,45.00
2019-05-03T09:08:02.586Z,45.00
2019-05-03T09:09:04.554Z,33.75
2019-05-03T09:10:02.596Z,33.75
2019-05-03T09:11:02.544Z,33.75
2019-05-03T09:12:04.576Z,39.38
2019-05-03T09:13:05.564Z,33.75
2019-05-03T09:14:04.432Z,39.38
2019-05-03T09:15:02.494Z,50.62
2019-05-03T09:16:02.502Z,33.75
2019-05-03T09:17:04.774Z,33.75
2019-05-03T09:18:04.645Z,28.12
2019-05-03T09:19:02.525Z,90.00
2019-05-03T09:20:02.448Z,101.25
2019-05-03T09:21:02.432Z,106.88
2019-05-03T09:22:02.478Z,106.88
2019-05-03T09:23:02.413Z,123.75
2019-05-03T09:24:04.557Z,56.25
2019-05-03T09:25:02.388Z,50.62
2019-05-03T09:26:04.509Z,45.00
2019-05-03T09:27:02.399Z,39.38
2019-05-03T09:28:04.577Z,33.75
2019-05-03T09:29:02.355Z,33.75
2019-05-03T09:30:02.329Z,33.75
2019-05-03T09:31:04.537Z,39.38
2019-05-03T09:32:02.317Z,39.38
2019-05-03T09:33:02.295Z,33.75
2019-05-03T09:34:02.288Z,39.38
2019-05-03T09:35:02.272Z,45.00
2019-05-03T09:36:02.287Z,45.00
2019-05-03T09:37:02.270Z,45.00
2019-05-03T09:38:02.251Z,39.38
2019-05-03T09:39:02.233Z,39.38
2019-05-03T09:40:02.223Z,33.75
2019-05-03T09:41:02.218Z,84.38
2019-05-03T09:42:02.203Z,90.00
2019-05-03T09:43:04.334Z,84.38
2019-05-03T09:44:02.210Z,84.38
2019-05-03T09:45:02.162Z,95.62
2019-05-03T09:46:02.151Z,112.50
2019-05-03T09:47:02.145Z,123.75
2019-05-03T09:48:02.131Z,101.25
2019-05-03T09:49:12.595Z,73.12
2019-05-03T09:50:04.809Z,61.88
2019-05-03T09:51:02.112Z,50.62
2019-05-03T09:52:02.346Z,50.62
2019-05-03T09:53:02.099Z,45.00
2019-05-03T09:54:02.072Z,39.38
2019-05-03T09:55:02.087Z,39.38
2019-05-03T09:56:02.041Z,28.12
2019-05-03T09:57:02.032Z,33.75
2019-05-03T09:58:02.028Z,39.38
2019-05-03T09:59:02.008Z,45.00
2019-05-03T10:00:02.025Z,61.88
2019-05-03T10:01:03.828Z,50.62
2019-05-03T10:02:01.985Z,78.75
2019-05-03T10:03:01.965Z,78.75
2019-05-03T10:04:01.952Z,78.75
2019-05-03T10:05:01.965Z,78.75
2019-05-03T10:06:01.970Z,78.75
2019-05-03T10:07:01.918Z,90.00
2019-05-03T10:08:01.905Z,73.12
2019-05-03T10:09:01.898Z,50.62
2019-05-03T10:10:01.907Z,101.25
2019-05-03T10:11:01.885Z,90.00
2019-05-03T10:12:01.879Z,95.62
2019-05-03T10:13:01.865Z,95.62
2019-05-03T10:14:01.840Z,95.62
2019-05-03T10:15:01.882Z,95.62
2019-05-03T10:16:01.824Z,90.00
2019-05-03T10:17:01.822Z,106.88
2019-05-03T10:18:08.007Z,135.00
2019-05-03T10:19:02.778Z,140.62
2019-05-03T10:20:01.773Z,78.75
2019-05-03T10:21:03.088Z,56.25
2019-05-03T10:22:01.747Z,45.00
2019-05-03T10:23:01.745Z,39.38
2019-05-03T10:24:01.723Z,39.38
2019-05-03T10:25:01.741Z,39.38
2019-05-03T10:26:01.709Z,50.62
2019-05-03T10:27:01.695Z,56.25
2019-05-03T10:28:01.692Z,50.62
2019-05-03T10:29:01.667Z,39.38
2019-05-03T10:30:10.486Z,45.00
2019-05-03T10:31:07.346Z,39.38
2019-05-03T10:32:02.633Z,39.38
2019-05-03T10:33:01.624Z,39.38
2019-05-03T10:34:01.638Z,56.25
2019-05-03T10:35:01.617Z,106.88
2019-05-03T10:36:01.603Z,84.38
2019-05-03T10:37:01.581Z,112.50
2019-05-03T10:38:01.566Z,112.50
2019-05-03T10:39:01.553Z,56.25
2019-05-03T10:40:01.549Z,50.62
2019-05-03T10:41:01.547Z,50.62
2019-05-03T10:42:01.520Z,50.62
2019-05-03T10:43:01.513Z,56.25
2019-05-03T10:44:01.501Z,56.25
2019-05-03T10:45:01.509Z,61.88
2019-05-03T10:46:01.475Z,67.50
2019-05-03T10:47:01.473Z,129.38
2019-05-03T10:48:01.458Z,292.50
2019-05-03T10:49:01.441Z,360.00
2019-05-03T10:50:01.436Z,556.88
2019-05-03T10:51:01.434Z,163.12
2019-05-03T10:52:01.413Z,56.25
2019-05-03T10:53:01.400Z,50.62
2019-05-03T10:54:01.386Z,50.62
2019-05-03T10:55:01.379Z,45.00
2019-05-03T10:56:01.369Z,39.38
2019-05-03T10:57:01.364Z,39.38
2019-05-03T10:58:01.337Z,33.75
2019-05-03T10:59:01.327Z,39.38
2019-05-03T11:00:01.322Z,39.38
2019-05-03T11:01:01.309Z,78.75
2019-05-03T11:02:01.294Z,832.50
2019-05-03T11:03:01.287Z,849.38
2019-05-03T11:04:01.268Z,686.25
2019-05-03T11:05:01.262Z,540.00
2019-05-03T11:06:01.254Z,630.00
2019-05-03T11:07:01.241Z,90.00
2019-05-03T11:08:01.268Z,45.00
2019-05-03T11:09:01.218Z,45.00
2019-05-03T11:10:01.202Z,45.00
2019-05-03T11:11:01.196Z,39.38
2019-05-03T11:12:01.192Z,39.38
2019-05-03T11:13:01.181Z,39.38
2019-05-03T11:14:01.175Z,39.38
2019-05-03T11:15:01.149Z,39.38
2019-05-03T11:16:01.137Z,39.38
2019-05-03T11:17:01.131Z,39.38
2019-05-03T11:18:01.119Z,45.00
2019-05-03T11:19:01.106Z,112.50
2019-05-03T11:20:01.095Z,517.50
2019-05-03T11:21:01.078Z,455.62
2019-05-03T11:22:01.070Z,410.62
2019-05-03T11:23:01.069Z,410.62
2019-05-03T11:24:01.057Z,376.88
2019-05-03T11:25:01.046Z,348.75
2019-05-03T11:26:01.026Z,309.38
2019-05-03T11:27:01.018Z,281.25
2019-05-03T11:28:01.004Z,286.88
2019-05-03T11:29:01.005Z,298.12
2019-05-03T11:30:00.986Z,241.88
2019-05-03T11:31:02.382Z,90.00
2019-05-03T11:32:00.968Z,45.00
2019-05-03T11:33:00.953Z,33.75
2019-05-03T11:34:00.934Z,28.12
2019-05-03T11:35:00.942Z,28.12
2019-05-03T11:36:00.931Z,22.50
2019-05-03T11:37:00.901Z,22.50
2019-05-03T11:38:00.895Z,28.12
2019-05-03T11:39:00.878Z,28.12
2019-05-03T11:40:00.881Z,28.12
2019-05-03T11:41:00.869Z,28.12
2019-05-03T11:42:00.850Z,33.75
2019-05-03T11:43:00.838Z,33.75
2019-05-03T11:44:00.824Z,39.38
2019-05-03T11:45:00.816Z,39.38
2019-05-03T11:46:00.802Z,39.38
2019-05-03T11:47:00.811Z,39.38
2019-05-03T11:48:00.789Z,39.38
2019-05-03T11:49:00.772Z,45.00
2019-05-03T11:50:00.763Z,50.62
2019-05-03T11:51:00.749Z,50.62
2019-05-03T11:52:00.746Z,50.62
2019-05-03T11:53:00.739Z,56.25
2019-05-03T11:54:00.717Z,73.12
2019-05-03T11:55:00.715Z,84.38
2019-05-03T11:56:00.691Z,84.38
2019-05-03T11:57:00.689Z,90.00
2019-05-03T11:58:00.685Z,106.88
2019-05-03T11:59:00.666Z,135.00
2019-05-03T12:00:00.655Z,123.75
2019-05-03T12:01:11.835Z,73.12
2019-05-03T12:02:01.618Z,61.88
2019-05-03T12:03:00.620Z,61.88
2019-05-03T12:04:00.609Z,56.25
2019-05-03T12:05:00.600Z,45.00
2019-05-03T12:06:00.583Z,45.00
2019-05-03T12:07:00.592Z,45.00
2019-05-03T12:08:00.567Z,39.38
2019-05-03T12:09:00.543Z,39.38
2019-05-03T12:10:00.593Z,45.00
2019-05-03T12:11:01.628Z,56.25
2019-05-03T12:12:00.514Z,61.88
2019-05-03T12:13:00.503Z,67.50
2019-05-03T12:14:04.159Z,67.50
2019-05-03T12:15:00.484Z,78.75
2019-05-03T12:16:00.634Z,123.75
2019-05-03T12:17:16.581Z,140.62
2019-05-03T12:18:01.911Z,140.62
2019-05-03T12:19:13.263Z,129.38
2019-05-03T12:20:03.007Z,135.00
2019-05-03T12:21:01.758Z,129.38
2019-05-03T12:22:00.913Z,129.38
2019-05-03T12:23:01.175Z,123.75
2019-05-03T12:24:01.100Z,135.00
2019-05-03T12:25:00.991Z,129.38
2019-05-03T12:26:00.954Z,135.00
2019-05-03T12:27:00.344Z,135.00
2019-05-03T12:28:00.351Z,135.00
2019-05-03T12:29:00.327Z,135.00
2019-05-03T12:30:00.317Z,90.00
2019-05-03T12:31:00.303Z,61.88
2019-05-03T12:32:00.294Z,129.38
2019-05-03T12:33:00.281Z,135.00
2019-05-03T12:34:00.279Z,129.38
2019-05-03T12:35:00.252Z,61.88
2019-05-03T12:36:00.241Z,135.00
2019-05-03T12:37:00.231Z,140.62
2019-05-03T12:38:00.229Z,135.00
2019-05-03T12:39:00.208Z,118.12
2019-05-03T12:40:00.200Z,140.62
2019-05-03T12:41:00.193Z,151.88
2019-05-03T12:42:00.174Z,140.62
2019-05-03T12:43:00.175Z,140.62
2019-05-03T12:44:00.174Z,140.62
2019-05-03T12:45:00.144Z,135.00
2019-05-03T12:46:00.133Z,129.38
2019-05-03T12:47:02.455Z,129.38
2019-05-03T12:48:00.118Z,140.62
2019-05-03T12:49:00.099Z,118.12
2019-05-03T12:50:00.105Z,118.12
2019-05-03T12:51:00.417Z,112.50
2019-05-03T12:52:00.068Z,95.62
2019-05-03T12:53:00.054Z,78.75
2019-05-03T12:54:00.041Z,78.75
2019-05-03T12:55:00.037Z,61.88
2019-05-03T12:56:00.022Z,56.25
2019-05-03T12:57:00.010Z,50.62
2019-05-03T12:57:59.995Z,45.00
2019-05-03T12:58:59.988Z,45.00